createdAt,value
2019-05-23T00:03:36.350Z,5.73
2019-05-23T00:07:43.247Z,5.76
2019-05-23T00:11:48.379Z,5.56
2019-05-23T00:15:54.909Z,5.33
2019-05-23T00:19:59.432Z,5.21
2019-05-23T00:24:04.213Z,5.24
2019-05-23T00:28:09.017Z,5.44
2019-05-23T00:32:15.304Z,5.58
2019-05-23T00:36:19.698Z,5.54
2019-05-23T00:40:23.190Z,5.49
2019-05-23T00:44:27.883Z,5.56
2019-05-23T00:48:32.895Z,5.47
2019-05-23T00:52:37.414Z,5.47
2019-05-23T00:56:41.909Z,5.50
2019-05-23T01:00:45.662Z,5.42
2019-05-23T01:04:51.112Z,5.37
2019-05-23T01:08:56.284Z,5.39
2019-05-23T01:13:00.309Z,5.39
2019-05-23T01:17:03.908Z,5.42
2019-05-23T01:21:21.236Z,5.59
2019-05-23T01:25:26.745Z,5.50
2019-05-23T01:29:37.761Z,5.57
2019-05-23T01:33:38.433Z,5.54
2019-05-23T01:37:42.975Z,5.50
2019-05-23T01:41:46.761Z,5.61
2019-05-23T01:45:50.750Z,5.51
2019-05-23T01:49:55.055Z,5.38
2019-05-23T01:53:58.543Z,5.40
2019-05-23T01:58:02.487Z,5.44
2019-05-23T02:02:06.976Z,5.63
2019-05-23T02:06:10.936Z,5.54
2019-05-23T02:10:16.386Z,5.49
2019-05-23T02:14:23.021Z,5.48
2019-05-23T02:18:28.554Z,5.39
2019-05-23T02:22:32.571Z,5.18
2019-05-23T02:26:37.015Z,5.18
2019-05-23T02:30:40.852Z,5.23
2019-05-23T02:34:45.142Z,5.24
2019-05-23T02:38:53.843Z,5.13
2019-05-23T02:43:07.756Z,5.00
2019-05-23T02:47:23.431Z,4.83
2019-05-23T02:51:33.777Z,4.80
2019-05-23T02:55:41.126Z,4.45
2019-05-23T02:59:49.278Z,4.45
2019-05-23T03:03:54.623Z,4.36
2019-05-23T03:08:01.189Z,4.29
2019-05-23T03:12:06.904Z,4.35
2019-05-23T03:16:17.873Z,4.27
2019-05-23T03:20:22.252Z,4.07
2019-05-23T03:24:26.527Z,3.99
2019-05-23T03:28:34.079Z,3.99
2019-05-23T03:32:39.992Z,4.03
2019-05-23T03:36:45.718Z,3.99
2019-05-23T03:40:50.210Z,4.02
2019-05-23T03:44:54.558Z,4.05
2019-05-23T03:48:59.915Z,4.17
2019-05-23T03:53:05.295Z,4.41
2019-05-23T03:57:10.758Z,4.44
2019-05-23T04:01:16.135Z,4.39
2019-05-23T04:05:20.582Z,4.48
2019-05-23T04:09:24.318Z,4.63
2019-05-23T04:13:28.410Z,4.89
2019-05-23T04:17:32.815Z,4.94
2019-05-23T04:21:36.286Z,5.12
2019-05-23T04:25:40.148Z,5.28
2019-05-23T04:29:43.740Z,5.57
2019-05-23T04:33:47.986Z,5.93
2019-05-23T04:37:51.607Z,6.64
2019-05-23T04:41:55.368Z,7.12
2019-05-23T04:45:59.214Z,7.41
2019-05-23T04:50:03.268Z,7.60
2019-05-23T04:54:08.289Z,7.78
2019-05-23T04:58:11.858Z,8.04
2019-05-23T05:02:25.528Z,8.32
2019-05-23T05:06:21.149Z,8.58
2019-05-23T05:10:27.009Z,8.88
2019-05-23T05:14:31.363Z,9.15
2019-05-23T05:18:35.112Z,9.33
2019-05-23T05:22:38.960Z,9.49
2019-05-23T05:26:42.791Z,9.90
2019-05-23T05:30:46.349Z,10.01
2019-05-23T05:34:49.909Z,10.15
2019-05-23T05:38:53.657Z,10.33
2019-05-23T05:42:58.301Z,10.54
2019-05-23T05:47:01.840Z,10.57
2019-05-23T05:51:05.939Z,10.69
2019-05-23T05:55:10.769Z,10.61
2019-05-23T05:59:14.749Z,10.89
2019-05-23T06:03:19.171Z,11.20
2019-05-23T06:07:26.794Z,11.35
2019-05-23T06:11:30.576Z,11.69
2019-05-23T06:15:35.456Z,11.78
2019-05-23T06:19:38.993Z,12.17
2019-05-23T06:23:43.128Z,12.34
2019-05-23T06:27:48.417Z,12.65
2019-05-23T06:31:53.369Z,13.06
2019-05-23T06:35:57.696Z,13.18
2019-05-23T06:40:01.377Z,13.27
2019-05-23T06:44:05.931Z,13.94
2019-05-23T06:48:10.764Z,14.34
2019-05-23T06:52:14.399Z,15.07
2019-05-23T06:56:18.450Z,15.68
2019-05-23T07:00:23.571Z,17.94
2019-05-23T07:04:27.714Z,21.68
2019-05-23T07:08:31.529Z,24.18
2019-05-23T07:12:35.658Z,25.42
2019-05-23T07:16:39.483Z,27.43
2019-05-23T07:20:43.042Z,27.07
2019-05-23T07:24:57.556Z,29.52
2019-05-23T07:28:53.090Z,31.15
2019-05-23T07:32:57.186Z,31.20
2019-05-23T07:37:01.890Z,30.15
2019-05-23T07:41:08.416Z,29.93
2019-05-23T07:45:20.228Z,29.40
2019-05-23T07:49:23.966Z,29.75
2019-05-23T07:53:47.680Z,30.81
2019-05-23T07:57:51.460Z,31.66
2019-05-23T08:01:59.651Z,31.16
2019-05-23T08:06:03.541Z,31.98
2019-05-23T08:10:10.647Z,28.78
2019-05-23T08:14:14.115Z,30.15
2019-05-23T08:18:17.671Z,29.63
2019-05-23T08:22:21.153Z,32.10
2019-05-23T08:26:24.654Z,33.39
2019-05-23T08:30:28.198Z,31.28
2019-05-23T08:34:41.510Z,32.57
2019-05-23T08:38:37.469Z,31.12
2019-05-23T08:42:41.591Z,31.12
2019-05-23T08:46:45.147Z,31.97
2019-05-23T08:50:51.398Z,32.25
2019-05-23T08:54:56.876Z,31.68
2019-05-23T08:59:00.891Z,28.14
2019-05-23T09:03:05.512Z,30.61
2019-05-23T09:07:10.383Z,30.61
2019-05-23T09:11:15.504Z,30.81
2019-05-23T09:15:19.155Z,29.62
2019-05-23T09:19:22.896Z,29.62
2019-05-23T09:23:28.147Z,30.33
2019-05-23T09:27:34.599Z,32.52
2019-05-23T09:31:38.420Z,32.43
2019-05-23T09:35:42.886Z,31.21
2019-05-23T09:39:48.137Z,31.07
2019-05-23T09:43:51.708Z,30.44
2019-05-23T09:47:55.263Z,30.29
2019-05-23T09:52:01.347Z,31.58
2019-05-23T09:56:04.966Z,32.14
2019-05-23T10:00:11.300Z,31.75
2019-05-23T10:04:14.778Z,31.36
2019-05-23T10:08:18.268Z,32.37
2019-05-23T10:12:22.647Z,32.69
2019-05-23T10:16:26.398Z,31.78
2019-05-23T10:20:34.211Z,32.71
2019-05-23T10:24:37.701Z,30.92
2019-05-23T10:28:41.359Z,30.24
2019-05-23T10:32:45.154Z,31.31
2019-05-23T10:36:48.639Z,29.03
2019-05-23T10:40:52.481Z,29.84
2019-05-23T10:44:56.272Z,29.85
2019-05-23T10:48:59.746Z,29.53
2019-05-23T10:53:03.748Z,29.96
2019-05-23T10:57:07.517Z,30.02
2019-05-23T11:01:13.166Z,30.25
2019-05-23T11:05:18.576Z,29.01
2019-05-23T11:09:36.643Z,25.45
2019-05-23T11:13:27.924Z,26.77
2019-05-23T11:17:31.412Z,26.29
2019-05-23T11:21:34.966Z,24.95
2019-05-23T11:25:39.925Z,24.43
2019-05-23T11:29:43.628Z,24.38
2019-05-23T11:33:47.462Z,24.58
2019-05-23T11:37:51.017Z,24.38
2019-05-23T11:41:54.563Z,24.63
2019-05-23T11:46:01.602Z,24.36
2019-05-23T11:50:06.714Z,23.45
2019-05-23T11:54:10.489Z,23.27
2019-05-23T11:58:14.228Z,23.60
2019-05-23T12:02:19.635Z,24.31
2019-05-23T12:06:26.376Z,23.45
2019-05-23T12:10:32.778Z,23.24
2019-05-23T12:14:37.078Z,23.39
2019-05-23T12:18:40.589Z,22.53
2019-05-23T12:22:44.774Z,22.64
2019-05-23T12:26:48.758Z,23.92
2019-05-23T12:30:52.726Z,23.84
2019-05-23T12:35:09.264Z,23.61
2019-05-23T12:39:01.964Z,23.18
2019-05-23T12:43:05.803Z,22.80
2019-05-23T12:47:10.983Z,22.57
2019-05-23T12:51:16.377Z,22.84
2019-05-23T12:55:19.871Z,23.54
2019-05-23T12:59:24.278Z,22.41
2019-05-23T13:03:29.419Z,21.91
2019-05-23T13:07:36.599Z,20.42
2019-05-23T13:11:39.085Z,20.98
2019-05-23T13:15:42.938Z,22.09
2019-05-23T13:19:46.691Z,23.06
2019-05-23T13:23:50.277Z,23.02
2019-05-23T13:27:58.052Z,22.69
2019-05-23T13:31:59.384Z,22.76
2019-05-23T13:36:05.112Z,22.27
2019-05-23T13:40:09.643Z,22.65
2019-05-23T13:44:32.148Z,21.80
2019-05-23T13:48:18.520Z,21.55
2019-05-23T13:52:22.031Z,21.86
2019-05-23T13:56:25.585Z,22.98
2019-05-23T14:00:30.780Z,22.37
2019-05-23T14:04:34.297Z,22.01
2019-05-23T14:08:38.177Z,22.02
2019-05-23T14:12:41.920Z,22.84
2019-05-23T14:17:03.861Z,22.58
2019-05-23T14:21:07.352Z,22.53
2019-05-23T14:25:11.007Z,22.45
2019-05-23T14:29:14.762Z,22.26
2019-05-23T14:33:27.120Z,22.17
2019-05-23T14:37:38.196Z,22.19
2019-05-23T14:41:45.986Z,22.20
2019-05-23T14:45:54.437Z,22.37
2019-05-23T14:50:15.079Z,22.56
2019-05-23T14:54:20.362Z,22.84
2019-05-23T14:58:24.208Z,23.02
2019-05-23T15:02:28.040Z,23.07
2019-05-23T15:06:31.700Z,23.09
2019-05-23T15:10:35.196Z,23.38
2019-05-23T15:14:38.704Z,23.22
2019-05-23T15:18:45.245Z,23.42
2019-05-23T15:22:48.723Z,23.33
2019-05-23T15:26:52.345Z,23.19
2019-05-23T15:30:58.600Z,22.33
2019-05-23T15:35:03.067Z,22.80
2019-05-23T15:39:10.498Z,22.81
2019-05-23T15:43:14.308Z,22.07
2019-05-23T15:47:19.785Z,22.50
2019-05-23T15:51:24.996Z,22.53
2019-05-23T15:55:33.307Z,22.57
2019-05-23T15:59:44.423Z,22.33
2019-05-23T16:03:52.826Z,22.49
2019-05-23T16:07:56.478Z,22.24
2019-05-23T16:12:00.122Z,22.13
2019-05-23T16:16:04.453Z,21.91
2019-05-23T16:20:08.378Z,21.66
2019-05-23T16:24:12.538Z,21.85
2019-05-23T16:28:16.399Z,21.67
2019-05-23T16:32:19.887Z,21.83
2019-05-23T16:36:23.378Z,21.68
2019-05-23T16:40:26.879Z,21.53
2019-05-23T16:44:30.378Z,21.50
2019-05-23T16:48:34.020Z,21.53
2019-05-23T16:52:38.349Z,21.79
2019-05-23T16:56:59.499Z,21.40
2019-05-23T17:01:04.829Z,21.06
2019-05-23T17:05:28.991Z,20.89
2019-05-23T17:09:34.303Z,20.56
2019-05-23T17:13:39.408Z,20.38
2019-05-23T17:18:02.474Z,20.09
2019-05-23T17:22:13.304Z,19.98
2019-05-23T17:26:34.809Z,19.70
2019-05-23T17:30:42.850Z,19.37
2019-05-23T17:34:46.760Z,19.01
2019-05-23T17:38:50.242Z,18.89
2019-05-23T17:42:53.732Z,18.73
2019-05-23T17:46:57.221Z,18.73
2019-05-23T17:51:01.139Z,18.71
2019-05-23T17:55:06.604Z,18.57
2019-05-23T17:59:10.403Z,18.68
2019-05-23T18:03:15.307Z,18.58
2019-05-23T18:07:18.869Z,18.61
2019-05-23T18:11:22.464Z,18.64
2019-05-23T18:15:26.783Z,18.81
2019-05-23T18:19:30.436Z,18.86
2019-05-23T18:23:34.460Z,18.86
2019-05-23T18:27:38.291Z,18.81
2019-05-23T18:31:42.872Z,18.58
2019-05-23T18:35:46.990Z,18.29
2019-05-23T18:39:50.815Z,18.08
2019-05-23T18:43:55.071Z,17.99
2019-05-23T18:47:58.805Z,17.86
2019-05-23T18:52:02.441Z,17.69
2019-05-23T18:56:07.404Z,17.45
2019-05-23T19:00:11.847Z,17.14
2019-05-23T19:04:15.523Z,16.87
2019-05-23T19:08:19.750Z,16.65
2019-05-23T19:12:23.521Z,16.30
2019-05-23T19:16:29.541Z,16.15
2019-05-23T19:20:33.505Z,15.94
2019-05-23T19:24:38.418Z,15.77
2019-05-23T19:28:43.565Z,15.71
2019-05-23T19:32:47.437Z,15.38
2019-05-23T19:36:51.090Z,14.96
2019-05-23T19:40:55.714Z,14.89
2019-05-23T19:44:59.358Z,14.49
2019-05-23T19:49:03.154Z,14.36
2019-05-23T19:53:06.998Z,14.21
2019-05-23T19:57:10.470Z,14.05
2019-05-23T20:01:14.709Z,13.82
2019-05-23T20:05:23.521Z,13.66
2019-05-23T20:09:27.878Z,13.66
2019-05-23T20:13:32.126Z,13.44
2019-05-23T20:17:35.716Z,13.26
2019-05-23T20:21:39.633Z,13.18
2019-05-23T20:25:43.548Z,13.05
2019-05-23T20:29:47.055Z,12.97
2019-05-23T20:33:51.542Z,12.96
2019-05-23T20:37:55.150Z,12.82
2019-05-23T20:42:10.881Z,12.67
2019-05-23T20:46:05.442Z,12.58
2019-05-23T20:50:09.330Z,12.43
2019-05-23T20:54:13.223Z,12.21
2019-05-23T20:58:16.861Z,12.14
2019-05-23T21:02:20.976Z,12.09
2019-05-23T21:06:24.867Z,11.91
2019-05-23T21:10:40.781Z,11.92
2019-05-23T21:14:44.563Z,11.73
2019-05-23T21:18:49.956Z,11.58
2019-05-23T21:22:53.855Z,11.49
2019-05-23T21:26:57.542Z,11.47
2019-05-23T21:31:01.297Z,11.37
2019-05-23T21:35:07.347Z,11.16
2019-05-23T21:39:12.563Z,10.98
2019-05-23T21:43:16.042Z,11.03
2019-05-23T21:47:19.904Z,11.02
2019-05-23T21:51:23.471Z,10.89
2019-05-23T21:55:43.938Z,10.80
2019-05-23T21:59:47.857Z,10.76
2019-05-23T22:03:53.450Z,10.62
2019-05-23T22:07:57.179Z,10.67
2019-05-23T22:12:01.013Z,10.78
2019-05-23T22:16:04.675Z,10.80
2019-05-23T22:20:08.696Z,10.63
2019-05-23T22:24:12.813Z,10.44
2019-05-23T22:28:16.806Z,10.51
2019-05-23T22:32:21.173Z,10.63
2019-05-23T22:36:25.205Z,10.69
2019-05-23T22:40:28.675Z,10.57
2019-05-23T22:44:32.527Z,10.44
2019-05-23T22:48:36.450Z,10.22
2019-05-23T22:52:39.957Z,10.33
2019-05-23T22:56:43.447Z,10.46
2019-05-23T23:00:48.929Z,10.41
2019-05-23T23:04:52.524Z,10.33
2019-05-23T23:08:56.083Z,10.32
2019-05-23T23:12:59.577Z,10.36
2019-05-23T23:17:03.183Z,10.20
2019-05-23T23:21:06.667Z,10.31
2019-05-23T23:25:11.031Z,10.30
2019-05-23T23:29:14.836Z,10.15
2019-05-23T23:33:18.971Z,10.21
2019-05-23T23:37:22.798Z,10.16
2019-05-23T23:41:26.274Z,10.31
2019-05-23T23:45:47.407Z,10.31
2019-05-23T23:50:08.721Z,10.11
2019-05-23T23:54:30.186Z,9.90
2019-05-23T23:58:32.957Z,10.08
